| time (UTC) | temp C | wind direction | speed KPH | gust KPH | rain 1hr cm | rain 24hr cm | rain mn cm | humidity % | barometer mb |
| 20260503013746 | 17 | 23 | 4.8 | 4.8 | 0.00 | 0.00 | 0.00 | 36 | 1015.9 |
| 20260503013243 | 17 | 27 | 3.2 | 3.2 | 0.00 | 0.00 | 0.00 | 36 | 1016.0 |
| 20260503012741 | 18 | 24 | 4.8 | 4.8 | 0.00 | 0.00 | 0.00 | 35 | 1016.0 |
| 20260503012238 | 18 | 31 | 3.2 | 3.2 | 0.00 | 0.00 | 0.00 | 34 | 1015.9 |
| 20260503011734 | 18 | 29 | 1.6 | 3.2 | 0.00 | 0.00 | 0.00 | 34 | 1016.0 |
| 20260503011232 | 18 | 46 | 3.2 | 3.2 | 0.00 | 0.00 | 0.00 | 33 | 1016.0 |
| 20260503010727 | 18 | 0 | 3.2 | 3.2 | 0.00 | 0.00 | 0.00 | 33 | 1016.1 |
| 20260503010225 | 18 | 21 | 3.2 | 3.2 | 0.00 | 0.00 | 0.00 | 33 | 1016.0 |
| 20260503005722 | 18 | 17 | 3.2 | 3.2 | 0.00 | 0.00 | 0.00 | 33 | 1016.3 |
| 20260503005219 | 18 | 34 | 3.2 | 3.2 | 0.00 | 0.00 | 0.00 | 33 | 1016.2 |
| 20260503004715 | 19 | 23 | 3.2 | 4.8 | 0.00 | 0.00 | 0.00 | 33 | 1016.2 |
| 20260503004214 | 19 | 38 | 3.2 | 3.2 | 0.00 | 0.00 | 0.00 | 33 | 1016.1 |
| 20260503003711 | 18 | 60 | 4.8 | 4.8 | 0.00 | 0.00 | 0.00 | 33 | 1016.3 |
| 20260503003208 | 19 | 48 | 6.4 | 9.7 | 0.00 | 0.00 | 0.00 | 33 | 1016.2 |
| 20260503002704 | 18 | 98 | 1.6 | 3.2 | 0.00 | 0.00 | 0.00 | 34 | 1016.4 |
| 20260503002201 | 18 | 81 | 3.2 | 3.2 | 0.00 | 0.00 | 0.00 | 33 | 1016.3 |
| 20260503001657 | 18 | 128 | 3.2 | 3.2 | 0.00 | 0.00 | 0.00 | 34 | 1016.3 |
| 20260503001154 | 19 | 67 | 6.4 | 6.4 | 0.00 | 0.00 | 0.00 | 33 | 1016.6 |
| 20260503000652 | 19 | 85 | 9.7 | 9.7 | 0.00 | 0.00 | 0.00 | 33 | 1016.4 |
| 20260503000149 | 20 | 53 | 4.8 | 6.4 | 0.00 | 0.00 | 0.00 | 33 | 1016.6 |
| 20260502235646 | 19 | 30 | 6.4 | 6.4 | 0.00 | 0.00 | 0.00 | 33 | 1016.7 |
| 20260502235144 | 19 | 79 | 8.0 | 9.7 | 0.00 | 0.00 | 0.00 | 33 | 1016.7 |
| 20260502234640 | 20 | 48 | 1.6 | 1.6 | 0.00 | 0.00 | 0.00 | 32 | 1016.7 |
| 20260502234137 | 19 | 357 | 0.0 | 1.6 | 0.00 | 0.00 | 0.00 | 33 | 1016.8 |
| 20260502233632 | 20 | 294 | 3.2 | 4.8 | 0.00 | 0.00 | 0.00 | 32 | 1016.8 |
| 20260502233129 | 20 | 39 | 0.0 | 1.6 | 0.00 | 0.00 | 0.00 | 31 | 1017.0 |
| 20260502232625 | 19 | 92 | 3.2 | 4.8 | 0.00 | 0.00 | 0.00 | 33 | 1016.9 |
| 20260502232123 | 20 | 250 | 3.2 | 3.2 | 0.00 | 0.00 | 0.00 | 32 | 1017.2 |
| 20260502231619 | 21 | 310 | 4.8 | 4.8 | 0.00 | 0.00 | 0.00 | 31 | 1017.0 |
| 20260502231117 | 20 | 168 | 3.2 | 3.2 | 0.00 | 0.00 | 0.00 | 32 | 1017.2 |
| 20260502230615 | 20 | 319 | 4.8 | 4.8 | 0.00 | 0.00 | 0.00 | 33 | 1017.2 |
| 20260502230114 | 20 | 0 | 9.7 | 11.3 | 0.00 | 0.00 | 0.00 | 32 | 1017.2 |
| 20260502225609 | 20 | 38 | 6.4 | 6.4 | 0.00 | 0.00 | 0.00 | 32 | 1017.2 |
| 20260502225106 | 18 | 80 | 4.8 | 4.8 | 0.00 | 0.00 | 0.00 | 34 | 1017.2 |
| 20260502224602 | 19 | 152 | 6.4 | 6.4 | 0.00 | 0.00 | 0.00 | 33 | 1017.3 |
| 20260502224059 | 18 | 48 | 8.0 | 9.7 | 0.00 | 0.00 | 0.00 | 34 | 1017.4 |
| 20260502223557 | 19 | 75 | 3.2 | 4.8 | 0.00 | 0.00 | 0.00 | 34 | 1017.5 |
| 20260502223055 | 18 | 52 | 1.6 | 3.2 | 0.00 | 0.00 | 0.00 | 34 | 1017.7 |
| 20260502222552 | 19 | 34 | 1.6 | 3.2 | 0.00 | 0.00 | 0.00 | 33 | 1017.7 |
| 20260502222048 | 18 | 35 | 3.2 | 4.8 | 0.00 | 0.00 | 0.00 | 34 | 1017.7 |
| 20260502221544 | 19 | 358 | 4.8 | 6.4 | 0.00 | 0.00 | 0.00 | 34 | 1017.8 |
| 20260502221042 | 19 | 71 | 1.6 | 1.6 | 0.00 | 0.00 | 0.00 | 34 | 1018.0 |
| 20260502220537 | 20 | 5 | 4.8 | 6.4 | 0.00 | 0.00 | 0.00 | 33 | 1018.1 |
| 20260502220034 | 18 | 308 | 3.2 | 3.2 | 0.00 | 0.00 | 0.00 | 33 | 1018.2 |
| 20260502215531 | 19 | 30 | 4.8 | 4.8 | 0.00 | 0.00 | 0.00 | 34 | 1018.0 |
| 20260502215028 | 18 | 343 | 1.6 | 3.2 | 0.00 | 0.00 | 0.00 | 34 | 1018.1 |
| 20260502214525 | 18 | 58 | 6.4 | 6.4 | 0.00 | 0.00 | 0.00 | 35 | 1018.2 |
| 20260502214023 | 18 | 48 | 3.2 | 3.2 | 0.00 | 0.00 | 0.00 | 35 | 1018.4 |
| 20260502213519 | 19 | 7 | 9.7 | 11.3 | 0.00 | 0.00 | 0.00 | 35 | 1018.4 |
| 20260502213017 | 19 | 6 | 8.0 | 9.7 | 0.00 | 0.00 | 0.00 | 35 | 1018.5 |
| 20260502212516 | 19 | 184 | 1.6 | 1.6 | 0.00 | 0.00 | 0.00 | 35 | 1018.5 |
| 20260502212013 | 18 | 319 | 4.8 | 9.7 | 0.00 | 0.00 | 0.00 | 36 | 1018.5 |
| 20260502211509 | 19 | 65 | 3.2 | 4.8 | 0.00 | 0.00 | 0.00 | 35 | 1018.5 |
| 20260502211006 | 19 | 297 | 6.4 | 6.4 | 0.00 | 0.00 | 0.00 | 34 | 1018.6 |
| 20260502210503 | 19 | 250 | 6.4 | 6.4 | 0.00 | 0.00 | 0.00 | 34 | 1018.5 |
| 20260502210000 | 19 | 11 | 9.7 | 11.3 | 0.00 | 0.00 | 0.00 | 34 | 1018.6 |
| 20260502205456 | 18 | 3 | 8.0 | 11.3 | 0.00 | 0.00 | 0.00 | 36 | 1018.8 |
| 20260502204953 | 18 | 358 | 6.4 | 6.4 | 0.00 | 0.00 | 0.00 | 36 | 1018.6 |
| 20260502204450 | 19 | 13 | 8.0 | 9.7 | 0.00 | 0.00 | 0.00 | 36 | 1018.9 |
| 20260502203948 | 18 | 318 | 9.7 | 12.9 | 0.00 | 0.00 | 0.00 | 36 | 1019.0 |
| 20260502203445 | 18 | 36 | 9.7 | 14.5 | 0.00 | 0.00 | 0.00 | 35 | 1019.0 |
| 20260502202941 | 18 | 6 | 12.9 | 16.1 | 0.00 | 0.00 | 0.00 | 35 | 1019.0 |
| 20260502202438 | 18 | 15 | 14.5 | 16.1 | 0.00 | 0.00 | 0.00 | 35 | 1019.1 |
| 20260502201936 | 17 | 8 | 9.7 | 11.3 | 0.00 | 0.00 | 0.00 | 37 | 1019.2 |
| 20260502201432 | 18 | 357 | 19.3 | 20.9 | 0.00 | 0.00 | 0.00 | 36 | 1019.2 |
| 20260502200929 | 18 | 359 | 11.3 | 14.5 | 0.00 | 0.00 | 0.00 | 36 | 1019.2 |
| 20260502200424 | 18 | 337 | 12.9 | 16.1 | 0.00 | 0.00 | 0.00 | 36 | 1019.2 |
| 20260502195923 | 18 | 20 | 8.0 | 9.7 | 0.00 | 0.00 | 0.00 | 35 | 1019.1 |
| 20260502195419 | 18 | 358 | 12.9 | 14.5 | 0.00 | 0.00 | 0.00 | 35 | 1019.3 |
| 20260502194916 | 18 | 306 | 1.6 | 3.2 | 0.00 | 0.00 | 0.00 | 35 | 1019.2 |
| 20260502194413 | 19 | 337 | 8.0 | 9.7 | 0.00 | 0.00 | 0.00 | 35 | 1019.3 |
| 20260502193909 | 19 | 174 | 4.8 | 4.8 | 0.00 | 0.00 | 0.00 | 34 | 1019.2 |
| 20260502193406 | 19 | 23 | 4.8 | 4.8 | 0.00 | 0.00 | 0.00 | 34 | 1019.5 |
| 20260502192901 | 18 | 41 | 6.4 | 6.4 | 0.00 | 0.00 | 0.00 | 35 | 1019.4 |
| 20260502192359 | 19 | 24 | 3.2 | 3.2 | 0.00 | 0.00 | 0.00 | 35 | 1019.4 |
| 20260502191855 | 18 | 32 | 9.7 | 11.3 | 0.00 | 0.00 | 0.00 | 35 | 1019.6 |
| 20260502191354 | 18 | 344 | 9.7 | 11.3 | 0.00 | 0.00 | 0.00 | 35 | 1019.7 |
| 20260502190851 | 18 | 7 | 8.0 | 9.7 | 0.00 | 0.00 | 0.00 | 35 | 1019.7 |
| 20260502190348 | 17 | 3 | 12.9 | 14.5 | 0.00 | 0.00 | 0.00 | 37 | 1019.7 |
| 20260502185844 | 18 | 311 | 9.7 | 12.9 | 0.00 | 0.00 | 0.00 | 37 | 1019.9 |
| 20260502185339 | 19 | 6 | 3.2 | 6.4 | 0.00 | 0.00 | 0.00 | 35 | 1019.7 |
| 20260502184837 | 18 | 30 | 1.6 | 1.6 | 0.00 | 0.00 | 0.00 | 35 | 1019.9 |
| 20260502184332 | 18 | 81 | 6.4 | 9.7 | 0.00 | 0.00 | 0.00 | 36 | 1019.9 |
| 20260502183829 | 18 | 61 | 12.9 | 16.1 | 0.00 | 0.00 | 0.00 | 36 | 1020.0 |
| 20260502183325 | 18 | 6 | 9.7 | 12.9 | 0.00 | 0.00 | 0.00 | 36 | 1020.0 |
| 20260502182820 | 18 | 340 | 11.3 | 14.5 | 0.00 | 0.00 | 0.00 | 36 | 1020.2 |
| 20260502182316 | 17 | 351 | 6.4 | 6.4 | 0.00 | 0.00 | 0.00 | 37 | 1020.1 |
| 20260502181813 | 17 | 331 | 8.0 | 9.7 | 0.00 | 0.00 | 0.00 | 37 | 1020.2 |
| 20260502181311 | 17 | 340 | 16.1 | 17.7 | 0.00 | 0.00 | 0.00 | 38 | 1020.4 |
| 20260502180809 | 16 | 350 | 9.7 | 12.9 | 0.00 | 0.00 | 0.00 | 39 | 1020.2 |
| 20260502180306 | 16 | 22 | 11.3 | 12.9 | 0.00 | 0.00 | 0.00 | 39 | 1020.4 |
| 20260502170225 | 17 | 10 | 9.7 | 12.9 | 0.00 | 0.00 | 0.00 | 37 | 1020.6 |
| 20260502164212 | 17 | 359 | 14.5 | 14.5 | 0.00 | 0.00 | 0.00 | 39 | 1020.5 |
| 20260502163708 | 17 | 10 | 14.5 | 16.1 | 0.00 | 0.00 | 0.00 | 39 | 1020.5 |
| 20260502163205 | 16 | 15 | 9.7 | 11.3 | 0.00 | 0.00 | 0.00 | 39 | 1020.5 |
| 20260502162701 | 16 | 347 | 12.9 | 14.5 | 0.00 | 0.00 | 0.00 | 39 | 1020.4 |
| 20260502162158 | 16 | 356 | 12.9 | 12.9 | 0.00 | 0.00 | 0.00 | 39 | 1020.7 |
| 20260502161655 | 16 | 11 | 11.3 | 12.9 | 0.00 | 0.00 | 0.00 | 39 | 1020.7 |
| 20260502161152 | 16 | 23 | 6.4 | 9.7 | 0.00 | 0.00 | 0.00 | 41 | 1020.6 |
| 20260502160650 | 15 | 61 | 8.0 | 9.7 | 0.00 | 0.00 | 0.00 | 40 | 1020.7 |
| 20260502160149 | 15 | 27 | 9.7 | 11.3 | 0.00 | 0.00 | 0.00 | 40 | 1020.8 |
| 20260502152103 | 14 | 43 | 11.3 | 12.9 | 0.00 | 0.00 | 0.00 | 42 | 1020.7 |
| 20260502151600 | 14 | 36 | 14.5 | 16.1 | 0.00 | 0.00 | 0.00 | 42 | 1020.6 |
| 20260502151057 | 13 | 34 | 14.5 | 17.7 | 0.00 | 0.00 | 0.00 | 43 | 1020.7 |
| 20260502150554 | 13 | 44 | 14.5 | 16.1 | 0.00 | 0.00 | 0.00 | 43 | 1020.5 |
| 20260502130439 | 9 | 331 | 9.7 | 11.3 | 0.00 | 0.00 | 0.00 | 52 | 1019.5 |
| 20260502123422 | 7 | 328 | 11.3 | 11.3 | 0.00 | 0.00 | 0.00 | 56 | 1019.1 |
| 20260502122919 | 7 | 325 | 8.0 | 9.7 | 0.00 | 0.00 | 0.00 | 58 | 1018.9 |
| 20260502122415 | 6 | 310 | 9.7 | 11.3 | 0.00 | 0.00 | 0.00 | 58 | 1018.9 |
| 20260502121914 | 7 | 328 | 9.7 | 11.3 | 0.00 | 0.00 | 0.00 | 58 | 1018.8 |
| 20260502121410 | 7 | 332 | 11.3 | 12.9 | 0.00 | 0.00 | 0.00 | 57 | 1018.8 |
| 20260502120908 | 6 | 336 | 9.7 | 12.9 | 0.00 | 0.00 | 0.00 | 57 | 1018.6 |
| 20260502120404 | 7 | 329 | 12.9 | 14.5 | 0.00 | 0.00 | 0.00 | 55 | 1018.6 |
| 20260502115901 | 6 | 323 | 8.0 | 9.7 | 0.00 | 0.00 | 0.00 | 56 | 1018.4 |
| 20260502115358 | 7 | 333 | 9.7 | 11.3 | 0.00 | 0.00 | 0.00 | 54 | 1018.5 |
| 20260502114854 | 6 | 337 | 12.9 | 12.9 | 0.00 | 0.00 | 0.00 | 54 | 1018.5 |
| 20260502114352 | 7 | 344 | 9.7 | 11.3 | 0.00 | 0.00 | 0.00 | 55 | 1018.6 |
| 20260502113848 | 7 | 332 | 9.7 | 12.9 | 0.00 | 0.00 | 0.00 | 51 | 1018.3 |
| 20260502113346 | 7 | 303 | 8.0 | 11.3 | 0.00 | 0.00 | 0.00 | 52 | 1018.3 |
| 20260502112844 | 7 | 321 | 6.4 | 6.4 | 0.00 | 0.00 | 0.00 | 53 | 1018.3 |
| 20260502112341 | 7 | 303 | 9.7 | 11.3 | 0.00 | 0.00 | 0.00 | 52 | 1018.0 |
| 20260502111839 | 7 | 308 | 9.7 | 11.3 | 0.00 | 0.00 | 0.00 | 52 | 1017.8 |
| 20260502111336 | 8 | 288 | 11.3 | 12.9 | 0.00 | 0.00 | 0.00 | 52 | 1018.0 |
| 20260502110834 | 8 | 302 | 9.7 | 11.3 | 0.00 | 0.00 | 0.00 | 51 | 1018.1 |
| 20260502110331 | 8 | 306 | 11.3 | 12.9 | 0.00 | 0.00 | 0.00 | 50 | 1017.9 |
| 20260502105828 | 9 | 288 | 19.3 | 20.9 | 0.00 | 0.00 | 0.00 | 49 | 1017.9 |
| 20260502105325 | 9 | 283 | 20.9 | 25.7 | 0.00 | 0.00 | 0.00 | 48 | 1017.8 |
| 20260502104823 | 9 | 294 | 16.1 | 16.1 | 0.00 | 0.00 | 0.00 | 48 | 1017.8 |
| 20260502104320 | 9 | 288 | 14.5 | 16.1 | 0.00 | 0.00 | 0.00 | 48 | 1017.8 |
| 20260502103818 | 10 | 277 | 16.1 | 16.1 | 0.00 | 0.00 | 0.00 | 47 | 1017.5 |
| 20260502103315 | 10 | 275 | 17.7 | 17.7 | 0.00 | 0.00 | 0.00 | 46 | 1017.4 |
| 20260502102812 | 10 | 292 | 14.5 | 16.1 | 0.00 | 0.00 | 0.00 | 46 | 1017.4 |
| 20260502102308 | 10 | 305 | 11.3 | 12.9 | 0.00 | 0.00 | 0.00 | 45 | 1017.3 |
| 20260502101806 | 10 | 290 | 11.3 | 14.5 | 0.00 | 0.00 | 0.00 | 45 | 1017.2 |
| 20260502101304 | 10 | 301 | 9.7 | 12.9 | 0.00 | 0.00 | 0.00 | 46 | 1017.2 |
| 20260502100802 | 10 | 300 | 6.4 | 9.7 | 0.00 | 0.00 | 0.00 | 45 | 1017.1 |
| 20260502100301 | 10 | 285 | 16.1 | 20.9 | 0.00 | 0.00 | 0.00 | 44 | 1017.2 |
| 20260502091235 | 5 | 219 | 0.0 | 1.6 | 0.00 | 0.00 | 0.00 | 53 | 1016.7 |
| 20260502090732 | 5 | 196 | 3.2 | 3.2 | 0.00 | 0.00 | 0.00 | 53 | 1016.6 |
| 20260502090229 | 4 | 175 | 1.6 | 3.2 | 0.00 | 0.00 | 0.00 | 54 | 1016.7 |
| 20260502071130 | 12 | 285 | 9.7 | 11.3 | 0.00 | 0.00 | 0.00 | 36 | 1016.3 |
| 20260502070627 | 12 | 284 | 11.3 | 12.9 | 0.00 | 0.00 | 0.00 | 36 | 1016.4 |
| 20260502070125 | 12 | 283 | 11.3 | 12.9 | 0.00 | 0.00 | 0.00 | 36 | 1016.3 |
| 20260502065623 | 11 | 290 | 9.7 | 12.9 | 0.00 | 0.00 | 0.00 | 36 | 1016.3 |
| 20260502065120 | 11 | 283 | 4.8 | 4.8 | 0.00 | 0.00 | 0.00 | 37 | 1016.1 |
| 20260502064619 | 11 | 284 | 8.0 | 9.7 | 0.00 | 0.00 | 0.00 | 36 | 1016.4 |
| 20260502064116 | 11 | 290 | 8.0 | 9.7 | 0.00 | 0.00 | 0.00 | 36 | 1016.4 |
| 20260502063614 | 11 | 295 | 8.0 | 9.7 | 0.00 | 0.00 | 0.00 | 36 | 1016.2 |
| 20260502063111 | 11 | 285 | 9.7 | 11.3 | 0.00 | 0.00 | 0.00 | 37 | 1016.2 |
| 20260502062608 | 10 | 294 | 8.0 | 9.7 | 0.00 | 0.00 | 0.00 | 39 | 1016.3 |
| 20260502062106 | 10 | 265 | 1.6 | 3.2 | 0.00 | 0.00 | 0.00 | 39 | 1016.2 |
| 20260502061604 | 9 | 255 | 3.2 | 3.2 | 0.00 | 0.00 | 0.00 | 40 | 1016.2 |
| 20260502061102 | 10 | 274 | 4.8 | 4.8 | 0.00 | 0.00 | 0.00 | 40 | 1016.4 |
| 20260502060601 | 10 | 277 | 3.2 | 4.8 | 0.00 | 0.00 | 0.00 | 39 | 1016.3 |
| 20260502060059 | 10 | 266 | 4.8 | 6.4 | 0.00 | 0.00 | 0.00 | 38 | 1016.2 |
| 20260502055556 | 10 | 249 | 1.6 | 1.6 | 0.00 | 0.00 | 0.00 | 38 | 1016.1 |
| 20260502055054 | 11 | 282 | 3.2 | 4.8 | 0.00 | 0.00 | 0.00 | 36 | 1016.2 |
| 20260502054553 | 11 | 285 | 4.8 | 6.4 | 0.00 | 0.00 | 0.00 | 37 | 1016.1 |
| 20260502054049 | 11 | 262 | 6.4 | 6.4 | 0.00 | 0.00 | 0.00 | 36 | 1016.0 |
| 20260502053547 | 11 | 255 | 4.8 | 4.8 | 0.00 | 0.00 | 0.00 | 35 | 1016.1 |
| 20260502053044 | 12 | 276 | 3.2 | 4.8 | 0.00 | 0.00 | 0.00 | 35 | 1015.9 |
| 20260502052543 | 12 | 248 | 3.2 | 4.8 | 0.00 | 0.00 | 0.00 | 34 | 1015.9 |
| 20260502052040 | 12 | 260 | 3.2 | 4.8 | 0.00 | 0.00 | 0.00 | 34 | 1016.0 |
| 20260502051538 | 12 | 270 | 3.2 | 4.8 | 0.00 | 0.00 | 0.00 | 33 | 1015.9 |
| 20260502051036 | 11 | 281 | 1.6 | 3.2 | 0.00 | 0.00 | 0.00 | 36 | 1015.7 |
| 20260502050531 | 13 | 249 | 3.2 | 4.8 | 0.00 | 0.00 | 0.00 | 32 | 1015.9 |
| 20260502050029 | 13 | 275 | 4.8 | 6.4 | 0.00 | 0.00 | 0.00 | 32 | 1015.8 |
| 20260502045525 | 13 | 281 | 6.4 | 6.4 | 0.00 | 0.00 | 0.00 | 31 | 1015.8 |
| 20260502045023 | 14 | 280 | 4.8 | 4.8 | 0.00 | 0.00 | 0.00 | 30 | 1015.7 |
| 20260502044519 | 15 | 299 | 6.4 | 9.7 | 0.00 | 0.00 | 0.00 | 28 | 1015.9 |
| 20260502044016 | 15 | 283 | 8.0 | 9.7 | 0.00 | 0.00 | 0.00 | 28 | 1015.8 |
| 20260502043513 | 15 | 281 | 6.4 | 9.7 | 0.00 | 0.00 | 0.00 | 29 | 1015.6 |
| 20260502043009 | 15 | 257 | 8.0 | 9.7 | 0.00 | 0.00 | 0.00 | 28 | 1015.7 |
| 20260502042504 | 15 | 268 | 6.4 | 6.4 | 0.00 | 0.00 | 0.00 | 28 | 1015.6 |
| 20260502042002 | 15 | 256 | 6.4 | 11.3 | 0.00 | 0.00 | 0.00 | 27 | 1015.7 |
| 20260502041500 | 15 | 282 | 9.7 | 11.3 | 0.00 | 0.00 | 0.00 | 27 | 1015.7 |
| 20260502040956 | 15 | 272 | 8.0 | 9.7 | 0.00 | 0.00 | 0.00 | 26 | 1015.7 |
| 20260502040453 | 16 | 277 | 6.4 | 9.7 | 0.00 | 0.00 | 0.00 | 26 | 1015.7 |
| 20260502035949 | 15 | 270 | 4.8 | 6.4 | 0.00 | 0.00 | 0.00 | 26 | 1015.6 |
| 20260502035445 | 16 | 291 | 6.4 | 6.4 | 0.00 | 0.00 | 0.00 | 26 | 1015.7 |
| 20260502034944 | 16 | 294 | 8.0 | 11.3 | 0.00 | 0.00 | 0.00 | 25 | 1015.5 |
| 20260502034442 | 16 | 289 | 9.7 | 9.7 | 0.00 | 0.00 | 0.00 | 25 | 1015.6 |
| 20260502033940 | 17 | 282 | 9.7 | 11.3 | 0.00 | 0.00 | 0.00 | 24 | 1015.5 |
| 20260502033437 | 17 | 275 | 9.7 | 11.3 | 0.00 | 0.00 | 0.00 | 24 | 1015.6 |
| 20260502032934 | 17 | 275 | 11.3 | 12.9 | 0.00 | 0.00 | 0.00 | 23 | 1015.4 |
| 20260502032430 | 17 | 297 | 12.9 | 14.5 | 0.00 | 0.00 | 0.00 | 23 | 1015.6 |
| 20260502031927 | 17 | 279 | 11.3 | 12.9 | 0.00 | 0.00 | 0.00 | 23 | 1015.4 |
| 20260502031426 | 17 | 290 | 11.3 | 12.9 | 0.00 | 0.00 | 0.00 | 23 | 1015.4 |
| 20260502030924 | 17 | 290 | 9.7 | 12.9 | 0.00 | 0.00 | 0.00 | 24 | 1015.1 |
| 20260502030422 | 17 | 290 | 11.3 | 12.9 | 0.00 | 0.00 | 0.00 | 23 | 1015.1 |
| 20260502025920 | 17 | 290 | 4.8 | 4.8 | 0.00 | 0.00 | 0.00 | 24 | 1015.1 |
| 20260502025416 | 16 | 273 | 3.2 | 3.2 | 0.00 | 0.00 | 0.00 | 25 | 1015.0 |
| 20260502024914 | 16 | 288 | 4.8 | 4.8 | 0.00 | 0.00 | 0.00 | 25 | 1014.9 |
| 20260502024412 | 17 | 270 | 3.2 | 4.8 | 0.00 | 0.00 | 0.00 | 25 | 1015.0 |
| 20260502023910 | 17 | 277 | 3.2 | 3.2 | 0.00 | 0.00 | 0.00 | 25 | 1014.8 |
| 20260502023407 | 17 | 287 | 4.8 | 6.4 | 0.00 | 0.00 | 0.00 | 25 | 1014.9 |
| 20260502022905 | 17 | 288 | 4.8 | 4.8 | 0.00 | 0.00 | 0.00 | 25 | 1014.9 |
| 20260502022400 | 17 | 265 | 3.2 | 4.8 | 0.00 | 0.00 | 0.00 | 25 | 1014.8 |
| 20260502021857 | 18 | 274 | 3.2 | 4.8 | 0.00 | 0.00 | 0.00 | 25 | 1014.9 |
| 20260502021355 | 18 | 284 | 3.2 | 4.8 | 0.00 | 0.00 | 0.00 | 25 | 1014.8 |
| 20260502020852 | 18 | 288 | 3.2 | 3.2 | 0.00 | 0.00 | 0.00 | 25 | 1014.7 |
| 20260502020350 | 19 | 293 | 3.2 | 3.2 | 0.00 | 0.00 | 0.00 | 24 | 1014.8 |
| 20260502015847 | 20 | 289 | 3.2 | 3.2 | 0.00 | 0.00 | 0.00 | 23 | 1014.9 |
| 20260502015344 | 21 | 311 | 1.6 | 3.2 | 0.00 | 0.00 | 0.00 | 22 | 1014.7 |
| 20260502014841 | 21 | 254 | 4.8 | 6.4 | 0.00 | 0.00 | 0.00 | 21 | 1014.7 |
| 20260502014338 | 21 | 276 | 3.2 | 4.8 | 0.00 | 0.00 | 0.00 | 23 | 1014.9 |